createdAt,value
2023-03-16T00:00:27.094Z,74.60
2023-03-16T00:01:29.623Z,74.34
2023-03-16T00:02:31.827Z,74.37
2023-03-16T00:03:34.480Z,74.54
2023-03-16T00:04:37.749Z,74.82
2023-03-16T00:05:40.108Z,74.61
2023-03-16T00:06:42.533Z,74.88
2023-03-16T00:07:44.998Z,75.02
2023-03-16T00:08:47.280Z,75.09
2023-03-16T00:09:49.742Z,74.91
2023-03-16T00:10:54.239Z,74.55
2023-03-16T00:12:03.150Z,74.63
2023-03-16T00:13:05.533Z,74.66
2023-03-16T00:14:08.688Z,74.32
2023-03-16T00:15:14.041Z,74.13
2023-03-16T00:16:17.088Z,74.00
2023-03-16T00:17:20.746Z,73.83
2023-03-16T00:18:27.473Z,74.17
2023-03-16T00:19:29.677Z,74.29
2023-03-16T00:20:33.536Z,74.55
2023-03-16T00:21:36.081Z,74.49
2023-03-16T00:22:38.338Z,74.36
2023-03-16T00:23:42.754Z,74.20
2023-03-16T00:24:45.034Z,74.70
2023-03-16T00:25:47.228Z,74.40
2023-03-16T00:26:49.662Z,74.51
2023-03-16T00:27:51.885Z,74.41
2023-03-16T00:28:54.588Z,74.42
2023-03-16T00:29:57.131Z,74.58
2023-03-16T00:30:59.515Z,74.65
2023-03-16T00:32:03.552Z,74.68
2023-03-16T00:33:05.908Z,74.60
2023-03-16T00:34:08.470Z,74.52
2023-03-16T00:35:12.220Z,74.73
2023-03-16T00:36:14.594Z,74.76
2023-03-16T00:37:18.829Z,74.66
2023-03-16T00:38:21.796Z,74.66
2023-03-16T00:39:24.512Z,74.74
2023-03-16T00:40:26.975Z,74.75
2023-03-16T00:41:29.338Z,74.65
2023-03-16T00:42:34.199Z,75.13
2023-03-16T00:43:44.551Z,74.88
2023-03-16T00:44:47.296Z,75.37
2023-03-16T00:45:49.550Z,75.39
2023-03-16T00:46:51.863Z,75.07
2023-03-16T00:47:54.248Z,75.12
2023-03-16T00:48:56.841Z,74.93
2023-03-16T00:50:01.058Z,75.29
2023-03-16T00:51:06.421Z,75.18
2023-03-16T00:52:14.757Z,75.30
2023-03-16T00:53:17.100Z,75.50
2023-03-16T00:54:20.041Z,75.30
2023-03-16T00:55:22.988Z,75.04
2023-03-16T00:56:25.470Z,74.90
2023-03-16T00:57:30.220Z,74.58
2023-03-16T00:58:35.838Z,74.75
2023-03-16T00:59:38.975Z,74.52
2023-03-16T01:00:41.248Z,74.57
2023-03-16T01:01:43.644Z,74.51
2023-03-16T01:02:45.865Z,74.26
2023-03-16T01:03:48.265Z,74.60
2023-03-16T01:04:52.227Z,74.33
2023-03-16T01:05:54.445Z,74.22
2023-03-16T01:06:56.604Z,74.43
2023-03-16T01:08:02.485Z,73.94
2023-03-16T01:09:05.745Z,74.16
2023-03-16T01:10:09.822Z,73.97
2023-03-16T01:11:17.468Z,74.04
2023-03-16T01:12:20.196Z,73.90
2023-03-16T01:13:22.893Z,74.17
2023-03-16T01:14:25.126Z,74.19
2023-03-16T01:15:27.509Z,74.20
2023-03-16T01:16:30.357Z,74.21
2023-03-16T01:17:35.127Z,74.16
2023-03-16T01:18:37.851Z,74.36
2023-03-16T01:19:42.165Z,73.99
2023-03-16T01:20:50.637Z,74.67
2023-03-16T01:21:53.647Z,74.76
2023-03-16T01:22:56.165Z,74.49
2023-03-16T01:23:58.486Z,74.67
2023-03-16T01:25:01.185Z,74.44
2023-03-16T01:26:03.671Z,74.42
2023-03-16T01:27:06.943Z,74.80
2023-03-16T01:28:09.950Z,74.76
2023-03-16T01:29:14.904Z,75.02
2023-03-16T01:30:17.476Z,74.96
2023-03-16T01:31:20.350Z,75.25
2023-03-16T01:32:23.247Z,75.33
2023-03-16T01:33:28.132Z,74.84
2023-03-16T01:34:32.054Z,74.60
2023-03-16T01:35:35.262Z,74.72
2023-03-16T01:36:38.188Z,75.05
2023-03-16T01:37:42.323Z,75.00
2023-03-16T01:38:54.089Z,75.22
2023-03-16T01:39:57.449Z,75.16
2023-03-16T01:41:01.276Z,75.34
2023-03-16T01:42:03.718Z,75.17
2023-03-16T01:43:07.746Z,74.84
2023-03-16T01:44:20.074Z,75.08
2023-03-16T01:46:14.674Z,74.77
2023-03-16T01:47:20.517Z,74.97
2023-03-16T01:48:26.236Z,74.99
2023-03-16T01:49:36.375Z,74.69
2023-03-16T01:50:38.871Z,75.29
2023-03-16T01:51:52.370Z,75.25
2023-03-16T01:52:56.299Z,75.61
2023-03-16T01:54:36.100Z,75.40
2023-03-16T01:55:41.417Z,75.44
2023-03-16T01:56:55.469Z,75.47
2023-03-16T01:57:57.919Z,75.22
2023-03-16T01:59:05.653Z,75.44
2023-03-16T02:00:20.961Z,75.70
2023-03-16T02:01:52.234Z,75.39
2023-03-16T02:03:00.636Z,75.50
2023-03-16T02:04:39.775Z,75.54
2023-03-16T02:05:48.998Z,75.84
2023-03-16T02:06:55.203Z,75.57
2023-03-16T02:07:58.936Z,75.76
2023-03-16T02:09:02.923Z,75.75
2023-03-16T02:10:07.491Z,75.75
2023-03-16T02:11:10.366Z,75.85
2023-03-16T02:12:27.061Z,75.89
2023-03-16T02:13:34.243Z,75.71
2023-03-16T02:14:37.085Z,75.40
2023-03-16T02:15:39.786Z,75.70
2023-03-16T02:16:42.337Z,75.80
2023-03-16T02:17:46.855Z,75.80
2023-03-16T02:18:51.817Z,75.70
2023-03-16T02:20:19.190Z,75.60
2023-03-16T02:21:40.261Z,75.68
2023-03-16T02:22:48.877Z,75.72
2023-03-16T02:23:52.711Z,75.38
2023-03-16T02:24:56.011Z,75.33
2023-03-16T02:26:29.299Z,75.60
2023-03-16T02:27:48.829Z,75.18
2023-03-16T02:29:23.296Z,75.24
2023-03-16T02:30:26.725Z,75.17
2023-03-16T02:31:35.823Z,75.58
2023-03-16T02:32:40.654Z,75.32
2023-03-16T02:33:44.892Z,75.06
2023-03-16T02:34:47.211Z,75.54
2023-03-16T02:35:50.305Z,75.53
2023-03-16T02:36:53.853Z,75.43
2023-03-16T02:38:00.263Z,75.12
2023-03-16T02:39:06.388Z,75.24
2023-03-16T02:40:24.112Z,75.44
2023-03-16T02:41:29.186Z,75.65
2023-03-16T02:42:34.096Z,75.48
2023-03-16T02:43:40.091Z,75.54
2023-03-16T02:45:00.533Z,75.11
2023-03-16T02:46:08.068Z,75.30
2023-03-16T02:47:29.549Z,75.39
2023-03-16T02:48:49.277Z,75.28
2023-03-16T02:49:51.628Z,75.94
2023-03-16T02:50:54.698Z,75.56
2023-03-16T02:51:57.569Z,75.59
2023-03-16T02:53:00.253Z,75.88
2023-03-16T02:54:03.333Z,75.71
2023-03-16T02:55:09.087Z,75.48
2023-03-16T02:56:11.625Z,75.85
2023-03-16T02:57:13.798Z,75.64
2023-03-16T02:58:17.283Z,75.73
2023-03-16T02:59:19.518Z,75.71
2023-03-16T03:00:22.100Z,76.14
2023-03-16T03:01:26.404Z,76.41
2023-03-16T03:02:29.898Z,76.53
2023-03-16T03:03:34.375Z,76.26
2023-03-16T03:04:36.803Z,76.27
2023-03-16T03:05:41.977Z,76.52
2023-03-16T03:06:44.440Z,76.10
2023-03-16T03:07:47.400Z,75.80
2023-03-16T03:08:49.565Z,75.64
2023-03-16T03:09:53.830Z,75.27
2023-03-16T03:10:56.239Z,75.69
2023-03-16T03:11:59.172Z,75.75
2023-03-16T03:13:01.699Z,75.44
2023-03-16T03:14:04.643Z,75.56
2023-03-16T03:15:08.016Z,76.01
2023-03-16T03:16:18.641Z,75.80
2023-03-16T03:17:20.863Z,75.96
2023-03-16T03:18:25.223Z,75.97
2023-03-16T03:19:28.176Z,75.84
2023-03-16T03:20:30.992Z,75.62
2023-03-16T03:21:33.182Z,75.55
2023-03-16T03:22:36.381Z,75.86
2023-03-16T03:23:38.751Z,75.70
2023-03-16T03:24:43.179Z,75.58
2023-03-16T03:25:45.952Z,75.64
2023-03-16T03:26:48.920Z,75.78
2023-03-16T03:27:55.308Z,75.74
2023-03-16T03:28:58.877Z,75.74
2023-03-16T03:30:01.582Z,75.65
2023-03-16T03:31:04.571Z,76.00
2023-03-16T03:32:07.470Z,75.87
2023-03-16T03:33:10.030Z,76.00
2023-03-16T03:34:12.223Z,75.88
2023-03-16T03:35:15.938Z,76.15
2023-03-16T03:36:18.201Z,76.28
2023-03-16T03:37:21.261Z,76.14
2023-03-16T03:38:25.159Z,76.12
2023-03-16T03:39:27.582Z,75.95
2023-03-16T03:40:30.817Z,76.32
2023-03-16T03:41:37.248Z,75.94
2023-03-16T03:42:42.164Z,76.23
2023-03-16T03:43:44.657Z,76.08
2023-03-16T03:44:51.968Z,76.19
2023-03-16T03:45:58.832Z,76.47
2023-03-16T03:47:01.505Z,76.56
2023-03-16T03:48:03.931Z,76.15
2023-03-16T03:49:06.103Z,76.25
2023-03-16T03:50:12.025Z,76.10
2023-03-16T03:51:24.480Z,76.17
2023-03-16T03:52:37.718Z,76.21
2023-03-16T03:53:39.903Z,76.32
2023-03-16T03:54:53.124Z,76.34
2023-03-16T03:55:55.321Z,76.64
2023-03-16T03:56:57.706Z,76.35
2023-03-16T03:58:00.396Z,76.73
2023-03-16T03:59:02.589Z,76.77
2023-03-16T04:00:31.131Z,76.37
2023-03-16T04:01:33.451Z,76.73
2023-03-16T04:02:36.126Z,76.80
2023-03-16T04:03:39.868Z,76.77
2023-03-16T04:04:44.890Z,76.48
2023-03-16T04:05:48.601Z,76.61
2023-03-16T04:06:51.568Z,76.57
2023-03-16T04:07:57.599Z,76.69
2023-03-16T04:08:59.949Z,76.93
2023-03-16T04:10:06.852Z,76.90
2023-03-16T04:11:14.691Z,76.40
2023-03-16T04:12:16.890Z,76.75
2023-03-16T04:13:19.654Z,76.40
2023-03-16T04:14:21.870Z,76.62
2023-03-16T04:15:24.375Z,76.29
2023-03-16T04:16:40.939Z,76.59
2023-03-16T04:17:43.507Z,76.58
2023-03-16T04:18:46.711Z,76.24
2023-03-16T04:19:49.363Z,76.66
2023-03-16T04:20:55.386Z,76.57
2023-03-16T04:21:59.561Z,76.58
2023-03-16T04:23:02.046Z,76.49
2023-03-16T04:24:05.810Z,76.24
2023-03-16T04:25:12.567Z,76.03
2023-03-16T04:26:16.155Z,76.20
2023-03-16T04:27:21.213Z,76.53
2023-03-16T04:28:26.558Z,76.64
2023-03-16T04:29:29.248Z,76.92
2023-03-16T04:30:33.377Z,76.91
2023-03-16T04:31:47.693Z,76.62
2023-03-16T04:32:52.400Z,76.80
2023-03-16T04:33:56.265Z,76.98
2023-03-16T04:34:59.245Z,76.97
2023-03-16T04:36:13.829Z,77.24
2023-03-16T04:37:16.456Z,77.15
2023-03-16T04:38:19.413Z,77.33
2023-03-16T04:39:31.008Z,76.87
2023-03-16T04:40:33.254Z,77.09
2023-03-16T04:41:43.042Z,76.90
2023-03-16T04:42:51.596Z,76.66
2023-03-16T04:43:55.777Z,76.88
2023-03-16T04:44:59.829Z,76.70
2023-03-16T04:46:04.298Z,76.60
2023-03-16T04:47:07.122Z,76.79
2023-03-16T04:48:13.618Z,76.66
2023-03-16T04:49:16.211Z,76.41
2023-03-16T04:50:20.919Z,76.47
2023-03-16T04:51:27.956Z,76.96
2023-03-16T04:52:49.695Z,77.06
2023-03-16T04:53:52.039Z,76.57
2023-03-16T04:55:00.301Z,76.42
2023-03-16T04:56:02.537Z,76.38
2023-03-16T04:57:05.864Z,77.02
2023-03-16T04:58:19.175Z,76.37
2023-03-16T04:59:24.980Z,76.43
2023-03-16T05:00:35.912Z,76.57
2023-03-16T05:01:43.577Z,76.67
2023-03-16T05:02:47.358Z,76.80
2023-03-16T05:03:49.968Z,76.93
2023-03-16T05:04:53.195Z,76.93
2023-03-16T05:05:55.622Z,76.90
2023-03-16T05:07:00.037Z,76.57
2023-03-16T05:08:08.429Z,76.67
2023-03-16T05:09:14.028Z,76.71
2023-03-16T05:10:19.159Z,76.56
2023-03-16T05:11:22.422Z,76.38
2023-03-16T05:12:31.651Z,76.51
2023-03-16T05:13:38.926Z,76.67
2023-03-16T05:14:41.473Z,76.45
2023-03-16T05:15:53.931Z,76.04
2023-03-16T05:17:03.902Z,76.54
2023-03-16T05:18:06.149Z,76.54
2023-03-16T05:19:08.547Z,76.71
2023-03-16T05:20:15.944Z,76.68
2023-03-16T05:21:23.082Z,76.42
2023-03-16T05:22:36.287Z,76.36
2023-03-16T05:23:47.791Z,75.97
2023-03-16T05:24:50.492Z,76.00
2023-03-16T05:25:52.905Z,75.81
2023-03-16T05:26:57.938Z,75.83
2023-03-16T05:28:02.021Z,76.16
2023-03-16T05:29:10.049Z,76.38
2023-03-16T05:30:13.659Z,76.19
2023-03-16T05:31:16.134Z,76.29
2023-03-16T05:32:24.390Z,76.49
2023-03-16T05:33:26.746Z,76.36
2023-03-16T05:34:36.313Z,76.33
2023-03-16T05:35:38.740Z,76.30
2023-03-16T05:36:45.240Z,76.54
2023-03-16T05:37:51.028Z,76.54
2023-03-16T05:38:55.964Z,76.65
2023-03-16T05:40:19.045Z,76.45
2023-03-16T05:41:28.325Z,76.12
2023-03-16T05:42:38.134Z,76.07
2023-03-16T05:43:40.566Z,76.67
2023-03-16T05:44:44.867Z,76.62
2023-03-16T05:45:55.903Z,76.63
2023-03-16T05:46:58.303Z,76.29
2023-03-16T05:48:00.955Z,76.13
2023-03-16T05:49:04.121Z,76.01
2023-03-16T05:50:11.395Z,76.12
2023-03-16T05:51:17.043Z,76.31
2023-03-16T05:52:19.646Z,76.03
2023-03-16T05:53:28.908Z,76.11
2023-03-16T05:54:36.349Z,75.86
2023-03-16T05:55:38.551Z,75.74
2023-03-16T05:56:43.891Z,75.69
2023-03-16T05:57:46.673Z,75.38
2023-03-16T05:58:49.082Z,75.58
2023-03-16T05:59:52.855Z,75.19
2023-03-16T06:00:59.046Z,75.04
2023-03-16T06:02:04.484Z,74.78
2023-03-16T06:03:07.303Z,74.70
2023-03-16T06:04:11.871Z,74.41
2023-03-16T06:05:17.917Z,74.32
2023-03-16T06:06:25.254Z,74.62
2023-03-16T06:07:37.073Z,74.57
2023-03-16T06:08:39.431Z,74.46
2023-03-16T06:09:44.845Z,74.86
2023-03-16T06:10:50.691Z,74.70
2023-03-16T06:11:54.366Z,74.69
2023-03-16T06:12:57.783Z,74.36
2023-03-16T06:14:01.931Z,74.21
2023-03-16T06:15:07.892Z,74.43
2023-03-16T06:16:13.793Z,74.15
2023-03-16T06:17:16.284Z,74.22
2023-03-16T06:18:18.682Z,74.00
2023-03-16T06:19:21.738Z,73.80
2023-03-16T06:20:28.925Z,74.10
2023-03-16T06:21:31.878Z,73.79
2023-03-16T06:22:42.354Z,73.62
2023-03-16T06:23:44.558Z,73.66
2023-03-16T06:24:47.356Z,73.80
2023-03-16T06:25:54.577Z,74.24
2023-03-16T06:26:59.511Z,73.79
2023-03-16T06:28:08.434Z,74.16
2023-03-16T06:29:10.696Z,73.75
2023-03-16T06:30:15.317Z,73.88
2023-03-16T06:31:17.647Z,73.56
2023-03-16T06:32:22.164Z,73.46
2023-03-16T06:33:24.947Z,73.79
2023-03-16T06:34:27.381Z,73.88
2023-03-16T06:35:31.563Z,73.85
2023-03-16T06:36:45.865Z,73.26
2023-03-16T06:37:48.872Z,73.10
2023-03-16T06:39:18.674Z,73.17
2023-03-16T06:40:23.833Z,73.36
2023-03-16T06:41:26.060Z,73.41
2023-03-16T06:42:28.652Z,73.02
2023-03-16T06:43:30.839Z,73.37
2023-03-16T06:44:33.096Z,73.11
2023-03-16T06:45:43.618Z,72.67
2023-03-16T06:46:45.916Z,72.77
2023-03-16T06:47:49.170Z,72.46
2023-03-16T06:48:51.367Z,72.85
2023-03-16T06:49:55.287Z,72.50
2023-03-16T06:51:00.766Z,72.43
2023-03-16T06:52:04.903Z,72.48
2023-03-16T06:53:07.157Z,72.13
2023-03-16T06:54:11.802Z,72.28
2023-03-16T06:55:15.597Z,71.82
2023-03-16T06:56:21.781Z,71.74
2023-03-16T06:57:25.950Z,72.16
2023-03-16T06:58:28.165Z,71.16
2023-03-16T06:59:30.387Z,71.19
2023-03-16T07:00:34.158Z,70.98
2023-03-16T07:01:36.764Z,70.41
2023-03-16T07:02:40.494Z,70.61
2023-03-16T07:03:43.799Z,70.30
2023-03-16T07:05:00.036Z,70.24
2023-03-16T07:06:03.221Z,70.17
2023-03-16T07:07:06.615Z,70.34
2023-03-16T07:08:10.172Z,70.35
2023-03-16T07:09:12.562Z,70.17
2023-03-16T07:10:17.510Z,70.09
2023-03-16T07:11:20.370Z,69.78
2023-03-16T07:12:22.742Z,69.98
2023-03-16T07:13:24.971Z,69.68
2023-03-16T07:14:27.347Z,69.61
2023-03-16T07:15:31.905Z,68.94
2023-03-16T07:16:35.342Z,67.68
2023-03-16T07:17:42.800Z,65.77
2023-03-16T07:18:45.277Z,64.56
2023-03-16T07:19:50.267Z,62.65
2023-03-16T07:20:55.720Z,61.34
2023-03-16T07:22:02.892Z,59.66
2023-03-16T07:23:08.676Z,58.74
2023-03-16T07:24:12.861Z,58.07
2023-03-16T07:25:16.453Z,57.63
2023-03-16T07:26:24.350Z,56.96
2023-03-16T07:27:31.268Z,56.03
2023-03-16T07:28:35.795Z,55.28
2023-03-16T07:29:40.570Z,54.40
2023-03-16T07:30:53.315Z,54.49
2023-03-16T07:32:04.045Z,54.76
2023-03-16T07:33:12.191Z,55.45
2023-03-16T07:34:14.900Z,54.53
2023-03-16T07:35:21.977Z,54.17
2023-03-16T07:36:24.847Z,53.66
2023-03-16T07:37:32.513Z,53.32
2023-03-16T07:38:36.413Z,52.68
2023-03-16T07:39:38.871Z,51.17
2023-03-16T07:40:46.254Z,51.21
2023-03-16T07:41:54.870Z,52.51
2023-03-16T07:43:13.251Z,52.55
2023-03-16T07:44:24.265Z,52.24
2023-03-16T07:45:30.039Z,51.30
2023-03-16T07:46:33.129Z,51.44
2023-03-16T07:47:36.447Z,51.20
2023-03-16T07:48:52.235Z,50.75
2023-03-16T07:49:54.413Z,50.73
2023-03-16T07:50:56.712Z,50.42
2023-03-16T07:51:59.966Z,50.27
2023-03-16T07:53:10.744Z,50.02
2023-03-16T07:54:15.709Z,49.78
2023-03-16T07:55:18.159Z,48.95
2023-03-16T07:56:21.601Z,47.73
2023-03-16T07:57:27.764Z,47.69
2023-03-16T07:58:30.267Z,47.20
2023-03-16T07:59:32.697Z,47.48
2023-03-16T08:00:36.482Z,47.21
2023-03-16T08:01:39.043Z,47.09
2023-03-16T08:02:42.104Z,47.29
2023-03-16T08:03:47.585Z,47.17
2023-03-16T08:04:49.964Z,47.45
2023-03-16T08:05:54.112Z,47.41
2023-03-16T08:07:00.238Z,47.68
2023-03-16T08:08:09.755Z,47.94
2023-03-16T08:09:13.852Z,47.37
2023-03-16T08:10:17.591Z,46.72
2023-03-16T08:11:31.910Z,46.00
2023-03-16T08:12:38.969Z,46.10
2023-03-16T08:13:44.027Z,47.15
2023-03-16T08:14:47.647Z,46.71
2023-03-16T08:16:10.928Z,45.98
2023-03-16T08:17:15.222Z,45.51
2023-03-16T08:18:18.429Z,45.66
2023-03-16T08:19:21.993Z,45.72
2023-03-16T08:20:26.058Z,45.39
2023-03-16T08:21:30.488Z,45.06
2023-03-16T08:22:32.752Z,44.50
2023-03-16T08:23:36.190Z,44.31
2023-03-16T08:24:39.144Z,43.68
2023-03-16T08:25:44.215Z,42.98
2023-03-16T08:26:50.875Z,42.65
2023-03-16T08:27:53.178Z,42.62
2023-03-16T08:28:55.905Z,42.82
2023-03-16T08:30:04.632Z,41.93
2023-03-16T08:31:09.205Z,42.30
2023-03-16T08:32:18.330Z,42.81
2023-03-16T08:33:23.429Z,42.70
2023-03-16T08:34:28.838Z,42.14
2023-03-16T08:35:31.088Z,41.92
2023-03-16T08:36:33.751Z,42.36
2023-03-16T08:37:36.907Z,43.23
2023-03-16T08:38:45.395Z,43.96
2023-03-16T08:39:51.559Z,43.88
2023-03-16T08:40:54.258Z,43.26
2023-03-16T08:41:58.036Z,42.88
2023-03-16T08:43:09.030Z,42.80
2023-03-16T08:44:11.344Z,42.77
2023-03-16T08:45:14.896Z,42.30
2023-03-16T08:46:24.343Z,42.06
2023-03-16T08:47:32.946Z,41.27
2023-03-16T08:48:36.287Z,40.76
2023-03-16T08:49:38.532Z,40.58
2023-03-16T08:50:46.451Z,41.05
2023-03-16T08:51:48.777Z,41.33
2023-03-16T08:52:51.169Z,41.84
2023-03-16T08:53:54.282Z,42.01
2023-03-16T08:55:03.469Z,42.10
2023-03-16T08:56:12.372Z,42.14
2023-03-16T08:57:14.582Z,42.38
2023-03-16T08:58:16.981Z,41.72
2023-03-16T08:59:29.089Z,42.06
2023-03-16T09:00:32.161Z,41.35
2023-03-16T09:01:34.654Z,41.13
2023-03-16T09:02:38.865Z,40.90
2023-03-16T09:03:42.416Z,40.53
2023-03-16T09:04:46.108Z,40.53
2023-03-16T09:05:49.514Z,40.35
2023-03-16T09:07:05.830Z,40.51
2023-03-16T09:08:10.442Z,40.49
2023-03-16T09:09:12.638Z,41.35
2023-03-16T09:10:16.269Z,41.63
2023-03-16T09:11:19.964Z,41.74
2023-03-16T09:12:23.460Z,41.94
2023-03-16T09:13:25.944Z,41.74
2023-03-16T09:14:28.536Z,41.63
2023-03-16T09:15:31.483Z,41.64
2023-03-16T09:16:33.943Z,41.43
2023-03-16T09:17:36.784Z,41.46
2023-03-16T09:18:40.098Z,41.22
2023-03-16T09:19:52.155Z,41.24
2023-03-16T09:21:00.122Z,39.93
2023-03-16T09:22:02.741Z,39.68
2023-03-16T09:23:05.001Z,39.48
2023-03-16T09:24:08.893Z,39.28
2023-03-16T09:25:11.322Z,39.37
2023-03-16T09:26:15.197Z,39.41
2023-03-16T09:27:18.099Z,39.27
2023-03-16T09:28:22.112Z,39.28
2023-03-16T09:29:24.893Z,39.44
2023-03-16T09:30:28.279Z,39.45
2023-03-16T09:31:30.832Z,39.03
2023-03-16T09:32:33.739Z,38.45
2023-03-16T09:33:36.454Z,38.52
2023-03-16T09:34:39.223Z,38.15
2023-03-16T09:35:41.617Z,38.20
2023-03-16T09:36:43.896Z,38.70
2023-03-16T09:38:04.687Z,38.74
2023-03-16T09:39:08.003Z,37.64
2023-03-16T09:40:20.834Z,38.11
2023-03-16T09:41:31.662Z,38.03
2023-03-16T09:42:39.120Z,38.11
2023-03-16T09:44:02.877Z,38.49
2023-03-16T09:45:23.959Z,38.22
2023-03-16T09:46:39.995Z,37.90
2023-03-16T09:47:45.336Z,38.05
2023-03-16T09:48:48.278Z,38.29
2023-03-16T09:49:52.434Z,38.48
2023-03-16T09:50:58.660Z,38.20
2023-03-16T09:52:21.237Z,37.59
2023-03-16T09:53:32.390Z,38.03
2023-03-16T09:54:46.279Z,37.84
2023-03-16T09:55:53.775Z,37.69
2023-03-16T09:56:58.074Z,37.61
2023-03-16T09:58:01.948Z,36.95
2023-03-16T09:59:12.123Z,37.47
2023-03-16T10:00:17.647Z,37.34
2023-03-16T10:01:51.133Z,37.79
2023-03-16T10:02:59.651Z,37.78
2023-03-16T10:04:21.679Z,37.25
2023-03-16T10:05:24.871Z,36.68
2023-03-16T10:06:28.115Z,37.07
2023-03-16T10:07:42.599Z,37.47
2023-03-16T10:09:18.246Z,36.86
2023-03-16T10:10:25.619Z,37.35
2023-03-16T10:11:41.396Z,36.58
2023-03-16T10:12:47.634Z,35.56
2023-03-16T10:14:29.191Z,35.85
2023-03-16T10:15:35.621Z,36.09
2023-03-16T10:17:08.495Z,36.27
2023-03-16T10:18:18.113Z,36.16
2023-03-16T10:19:33.278Z,36.75
2023-03-16T10:20:36.618Z,37.23
2023-03-16T10:21:41.126Z,37.54
2023-03-16T10:22:46.959Z,37.13
2023-03-16T10:23:49.833Z,36.08
2023-03-16T10:25:13.091Z,35.30
2023-03-16T10:26:28.659Z,34.88
2023-03-16T10:27:33.682Z,35.09
2023-03-16T10:28:37.732Z,34.37
2023-03-16T10:29:40.120Z,34.60
2023-03-16T10:30:43.030Z,34.86
2023-03-16T10:31:46.377Z,34.65
2023-03-16T10:32:49.510Z,34.66
2023-03-16T10:33:58.439Z,35.09
2023-03-16T10:35:06.957Z,35.32
2023-03-16T10:36:39.062Z,36.50
2023-03-16T10:37:41.341Z,36.81
2023-03-16T10:38:47.031Z,36.27
2023-03-16T10:39:49.513Z,35.08
2023-03-16T10:40:53.054Z,35.17
2023-03-16T10:41:57.444Z,36.03
2023-03-16T10:43:16.427Z,36.15
2023-03-16T10:44:40.543Z,35.88
2023-03-16T10:45:43.238Z,35.64
2023-03-16T10:46:53.406Z,35.14
2023-03-16T10:48:08.463Z,34.60
2023-03-16T10:49:44.346Z,35.26
2023-03-16T10:50:53.897Z,34.25
2023-03-16T10:52:00.764Z,34.39
2023-03-16T10:53:03.448Z,34.43
2023-03-16T10:54:14.817Z,33.85
2023-03-16T10:55:23.222Z,32.75
2023-03-16T10:56:25.855Z,32.97
2023-03-16T10:57:33.951Z,31.95
2023-03-16T10:58:43.210Z,32.29
2023-03-16T10:59:49.643Z,32.44
2023-03-16T11:00:52.091Z,32.85
2023-03-16T11:01:55.026Z,32.76
2023-03-16T11:02:59.755Z,33.43
2023-03-16T11:04:02.675Z,33.47
2023-03-16T11:05:34.870Z,34.76
2023-03-16T11:06:37.055Z,34.20
2023-03-16T11:08:20.114Z,33.86
2023-03-16T11:09:43.116Z,32.43
2023-03-16T11:10:55.713Z,32.05
2023-03-16T11:11:58.755Z,31.66
2023-03-16T11:13:12.719Z,31.13
2023-03-16T11:14:15.883Z,31.07
2023-03-16T11:15:25.875Z,31.39
2023-03-16T11:16:37.321Z,31.86
2023-03-16T11:17:47.200Z,31.98
2023-03-16T11:18:58.797Z,31.76
2023-03-16T11:20:12.292Z,32.28
2023-03-16T11:21:17.299Z,31.88
2023-03-16T11:22:24.349Z,31.67
2023-03-16T11:23:33.596Z,32.00
2023-03-16T11:25:07.292Z,31.54
2023-03-16T11:26:21.269Z,32.09
2023-03-16T11:27:45.402Z,32.80
2023-03-16T11:29:01.752Z,31.56
2023-03-16T11:30:22.096Z,31.24
2023-03-16T11:31:33.178Z,30.51
2023-03-16T11:32:38.559Z,30.91
2023-03-16T11:33:40.760Z,27.33
2023-03-16T11:34:44.570Z,26.02
2023-03-16T11:36:01.087Z,26.55
2023-03-16T11:37:21.978Z,26.22
2023-03-16T11:39:03.863Z,27.91
2023-03-16T11:40:49.369Z,28.24
2023-03-16T11:42:14.258Z,28.70
2023-03-16T11:43:42.655Z,27.93
2023-03-16T11:44:56.947Z,28.33
2023-03-16T11:46:08.981Z,28.63
2023-03-16T11:47:26.478Z,28.43
2023-03-16T11:48:44.959Z,27.78
2023-03-16T11:50:05.694Z,26.98
2023-03-16T11:51:41.169Z,27.86
2023-03-16T11:53:00.415Z,28.76
2023-03-16T11:54:30.455Z,27.62
2023-03-16T11:55:47.752Z,27.26
2023-03-16T11:56:55.460Z,25.74
2023-03-16T11:58:17.261Z,25.39
2023-03-16T11:59:37.800Z,26.23
2023-03-16T12:00:52.442Z,24.00
2023-03-16T12:02:24.763Z,22.20
2023-03-16T12:03:36.848Z,21.88
2023-03-16T12:05:16.867Z,22.71
2023-03-16T12:06:34.400Z,22.44
2023-03-16T12:07:46.427Z,22.00
2023-03-16T12:09:04.708Z,22.50
2023-03-16T12:10:18.812Z,22.77
2023-03-16T12:11:28.703Z,22.49
2023-03-16T12:13:06.761Z,24.72
2023-03-16T12:14:24.961Z,25.18
2023-03-16T12:15:36.119Z,25.38
2023-03-16T12:16:57.475Z,25.91
2023-03-16T12:18:15.302Z,25.65
2023-03-16T12:19:30.744Z,26.41
2023-03-16T12:20:43.645Z,26.66
2023-03-16T12:21:49.174Z,27.03
2023-03-16T12:23:05.955Z,27.04
2023-03-16T12:24:19.429Z,24.94
2023-03-16T12:25:33.184Z,26.08
2023-03-16T12:26:42.505Z,26.34
2023-03-16T12:27:46.274Z,26.00
2023-03-16T12:28:50.561Z,26.76
2023-03-16T12:30:01.796Z,27.10
2023-03-16T12:31:37.525Z,27.58
2023-03-16T12:32:53.538Z,27.58
2023-03-16T12:34:24.326Z,26.94
2023-03-16T12:35:51.738Z,27.56
2023-03-16T12:37:13.059Z,28.08
2023-03-16T12:38:37.425Z,27.42
2023-03-16T12:39:58.172Z,27.73
2023-03-16T12:41:07.455Z,28.10
2023-03-16T12:42:12.597Z,28.27
2023-03-16T12:43:35.586Z,28.96
2023-03-16T12:44:47.839Z,29.32
2023-03-16T12:46:14.400Z,28.58
2023-03-16T12:47:28.531Z,28.77
2023-03-16T12:48:37.085Z,28.41
2023-03-16T12:49:39.941Z,27.96
2023-03-16T12:50:51.378Z,27.98
2023-03-16T12:52:20.394Z,26.45
2023-03-16T12:53:28.616Z,26.27
2023-03-16T12:54:31.187Z,26.83
2023-03-16T12:55:33.445Z,26.54
2023-03-16T12:56:44.511Z,27.10
2023-03-16T12:57:49.721Z,26.89
2023-03-16T12:58:56.732Z,26.73
2023-03-16T13:00:01.142Z,26.52
2023-03-16T13:01:10.722Z,27.30
2023-03-16T13:02:19.515Z,27.71
2023-03-16T13:03:23.361Z,27.98
2023-03-16T13:04:35.765Z,27.58
2023-03-16T13:05:45.744Z,26.58
2023-03-16T13:06:51.617Z,26.47
2023-03-16T13:08:10.596Z,27.29
2023-03-16T13:09:19.278Z,27.53
2023-03-16T13:10:22.086Z,27.00
2023-03-16T13:11:25.530Z,26.95
2023-03-16T13:12:36.812Z,26.19
2023-03-16T13:13:58.242Z,26.59
2023-03-16T13:15:00.643Z,25.35
2023-03-16T13:16:10.111Z,25.68
2023-03-16T13:17:18.651Z,24.73
2023-03-16T13:18:23.231Z,25.24
2023-03-16T13:19:30.468Z,25.35
2023-03-16T13:20:35.752Z,25.26
2023-03-16T13:21:41.070Z,25.55
2023-03-16T13:22:51.222Z,25.84
2023-03-16T13:24:01.532Z,26.06
2023-03-16T13:25:18.761Z,26.09
2023-03-16T13:26:43.330Z,25.99
2023-03-16T13:27:52.596Z,26.37
2023-03-16T13:28:55.403Z,25.57
2023-03-16T13:30:15.719Z,26.16
2023-03-16T13:31:21.578Z,26.74
2023-03-16T13:32:27.322Z,25.63
2023-03-16T13:33:38.197Z,26.08
2023-03-16T13:34:48.449Z,28.05
2023-03-16T13:35:52.890Z,28.80
2023-03-16T13:36:58.209Z,29.39
2023-03-16T13:38:05.781Z,29.44
2023-03-16T13:39:20.836Z,29.45
2023-03-16T13:40:30.093Z,28.95
2023-03-16T13:41:32.868Z,28.89
2023-03-16T13:42:36.660Z,28.88
2023-03-16T13:43:43.788Z,29.15
2023-03-16T13:44:46.712Z,29.57
2023-03-16T13:45:48.961Z,29.89
2023-03-16T13:46:51.392Z,30.33
2023-03-16T13:47:53.709Z,29.57
2023-03-16T13:49:00.748Z,29.24
2023-03-16T13:50:03.286Z,29.27
2023-03-16T13:51:15.675Z,29.16
2023-03-16T13:52:31.792Z,28.94
2023-03-16T13:53:34.164Z,28.28
2023-03-16T13:54:37.207Z,29.28
2023-03-16T13:55:40.557Z,29.04
2023-03-16T13:56:43.217Z,29.23
2023-03-16T13:57:46.458Z,29.07
2023-03-16T13:58:51.748Z,29.99
2023-03-16T14:00:05.946Z,29.54
2023-03-16T14:01:26.092Z,29.67
2023-03-16T14:02:29.320Z,29.63
2023-03-16T14:03:39.281Z,29.84
2023-03-16T14:04:43.414Z,29.51
2023-03-16T14:05:46.151Z,29.63
2023-03-16T14:06:57.043Z,29.58
2023-03-16T14:08:00.839Z,29.74
2023-03-16T14:09:04.942Z,30.29
2023-03-16T14:10:09.003Z,28.97
2023-03-16T14:11:11.274Z,29.36
2023-03-16T14:12:14.732Z,28.91
2023-03-16T14:13:29.613Z,28.04
2023-03-16T14:14:37.104Z,28.36
2023-03-16T14:15:39.513Z,28.41
2023-03-16T14:16:42.752Z,28.14
2023-03-16T14:17:44.712Z,26.55
2023-03-16T14:18:48.597Z,27.40
2023-03-16T14:19:51.884Z,27.42
2023-03-16T14:20:54.857Z,27.27
2023-03-16T14:21:56.886Z,27.24
2023-03-16T14:23:00.031Z,27.55
2023-03-16T14:24:04.661Z,26.49
2023-03-16T14:25:06.840Z,26.77
2023-03-16T14:26:16.545Z,26.10
2023-03-16T14:27:25.537Z,25.87
2023-03-16T14:28:32.382Z,25.57